Time,TemperatureF,DewpointF,PressureIn,WindDirection,WindDirectionDegrees,WindSpeedMPH,WindSpeedGustMPH,Humidity,HourlyPrecipIn,Conditions,Clouds,dailyrainin,SoftwareType,DateUTC
2013-03-07 00:03:00,38.0,33.6,29.83,WSW,248,5.4,5.4,84,0.00,,,0.00,WUHU216HW,2013-03-07 08:03:00,
2013-03-07 00:28:00,37.6,33.5,29.84,SSW,203,3.8,3.8,85,0.00,,,0.00,WUHU216HW,2013-03-07 08:28:00,
2013-03-07 00:33:00,37.6,33.5,29.84,SSW,203,3.8,3.8,85,0.00,,,0.00,WUHU216HW,2013-03-07 08:33:00,
2013-03-07 00:58:00,37.1,33.2,29.85,SSW,203,2.9,2.9,86,0.00,,,0.00,WUHU216HW,2013-03-07 08:58:00,
2013-03-07 01:03:00,37.1,33.2,29.85,SSW,203,2.9,2.9,86,0.00,,,0.00,WUHU216HW,2013-03-07 09:03:00,
2013-03-07 01:28:00,36.9,33.0,29.87,SW,225,0.0,0.0,86,0.00,,,0.00,WUHU216HW,2013-03-07 09:28:00,
2013-03-07 01:33:00,36.9,33.0,29.87,SW,225,0.0,0.0,86,0.00,,,0.00,WUHU216HW,2013-03-07 09:33:00,
2013-03-07 01:58:00,36.5,32.7,29.88,SW,225,0.0,0.0,86,0.01,,,0.00,WUHU216HW,2013-03-07 09:58:00,
2013-03-07 02:03:00,36.5,32.7,29.88,SW,225,0.0,0.0,86,0.01,,,0.00,WUHU216HW,2013-03-07 10:03:00,
2013-03-07 02:28:00,36.0,32.1,29.88,NNE,23,0.0,0.0,86,0.02,,,0.02,WUHU216HW,2013-03-07 10:28:00,
2013-03-07 02:33:00,36.0,32.1,29.88,NNE,23,0.0,0.0,86,0.02,,,0.02,WUHU216HW,2013-03-07 10:33:00,
2013-03-07 02:58:00,35.5,31.9,29.88,NNE,23,0.0,0.0,87,0.04,,,0.03,WUHU216HW,2013-03-07 10:58:00,
2013-03-07 03:03:00,35.3,31.7,29.88,NNE,23,0.0,0.0,87,0.03,,,0.05,WUHU216HW,2013-03-07 11:03:00,
2013-03-07 03:08:00,35.3,31.7,29.88,NNE,23,0.0,0.0,87,0.03,,,0.05,WUHU216HW,2013-03-07 11:08:00,
2013-03-07 03:28:00,35.1,31.5,29.89,NNE,23,0.0,0.0,87,0.03,,,0.05,WUHU216HW,2013-03-07 11:28:00,
2013-03-07 03:34:00,35.1,31.5,29.89,NNE,23,0.0,0.0,87,0.03,,,0.05,WUHU216HW,2013-03-07 11:34:00,
2013-03-07 03:58:00,34.9,31.3,29.90,NNE,23,0.0,0.0,87,0.03,,,0.08,WUHU216HW,2013-03-07 11:58:00,
2013-03-07 04:03:00,34.9,31.3,29.90,NNE,23,0.0,0.0,87,0.03,,,0.09,WUHU216HW,2013-03-07 12:03:00,
2013-03-07 04:08:00,34.9,31.3,29.90,NNE,23,0.0,0.0,87,0.03,,,0.09,WUHU216HW,2013-03-07 12:08:00,
2013-03-07 04:28:00,34.2,31.2,29.91,NE,45,1.1,1.1,89,0.03,,,0.09,WUHU216HW,2013-03-07 12:28:00,
2013-03-07 04:34:00,34.2,31.2,29.91,NE,45,1.1,1.1,89,0.03,,,0.09,WUHU216HW,2013-03-07 12:34:00,
2013-03-07 04:58:00,34.6,31.6,29.93,NE,45,0.4,0.4,89,0.05,,,0.11,WUHU216HW,2013-03-07 12:58:00,
2013-03-07 05:03:00,34.6,31.6,29.93,NE,45,0.4,0.4,89,0.04,,,0.14,WUHU216HW,2013-03-07 13:03:00,
2013-03-07 05:09:00,34.6,31.6,29.93,NE,45,0.4,0.4,89,0.04,,,0.14,WUHU216HW,2013-03-07 13:09:00,
2013-03-07 05:28:00,34.4,31.4,29.93,NE,45,0.9,0.9,89,0.05,,,0.14,WUHU216HW,2013-03-07 13:28:00,
2013-03-07 05:34:00,34.4,31.4,29.93,NE,45,0.9,0.9,89,0.05,,,0.14,WUHU216HW,2013-03-07 13:34:00,
2013-03-07 05:58:00,34.2,31.2,29.95,NNE,23,0.9,0.9,89,0.06,,,0.17,WUHU216HW,2013-03-07 13:58:00,
2013-03-07 06:03:00,34.2,31.2,29.95,NNE,23,0.7,0.9,89,0.05,,,0.20,WUHU216HW,2013-03-07 14:03:00,
2013-03-07 06:08:00,34.2,31.2,29.95,NNE,23,0.7,0.7,89,0.05,,,0.20,WUHU216HW,2013-03-07 14:08:00,
2013-03-07 06:28:00,34.9,32.2,29.96,South,180,0.0,0.0,90,0.03,,,0.20,WUHU216HW,2013-03-07 14:28:00,
2013-03-07 06:33:00,34.9,32.2,29.96,South,180,0.0,0.0,90,0.03,,,0.20,WUHU216HW,2013-03-07 14:33:00,
2013-03-07 06:58:00,35.5,32.8,29.97,NE,45,0.0,0.0,90,0.02,,,0.20,WUHU216HW,2013-03-07 14:58:00,
2013-03-07 07:03:00,35.5,32.8,29.97,NE,45,0.0,0.0,90,0.02,,,0.20,WUHU216HW,2013-03-07 15:03:00,
2013-03-07 07:28:00,36.0,33.3,29.98,SW,225,2.0,2.0,90,0.03,,,0.22,WUHU216HW,2013-03-07 15:28:00,
2013-03-07 07:33:00,36.0,33.3,29.98,SW,225,2.0,2.0,90,0.03,,,0.22,WUHU216HW,2013-03-07 15:33:00,
2013-03-07 07:58:00,36.7,34.0,29.98,SW,225,0.0,0.0,90,0.02,,,0.23,WUHU216HW,2013-03-07 15:58:00,
2013-03-07 08:03:00,36.7,34.0,29.98,SW,225,0.0,0.0,90,0.02,,,0.23,WUHU216HW,2013-03-07 16:03:00,
2013-03-07 08:28:00,37.6,34.9,30.00,SSW,203,0.9,0.9,90,0.01,,,0.24,WUHU216HW,2013-03-07 16:28:00,
2013-03-07 08:33:00,37.6,34.9,30.00,SSW,203,0.9,0.9,90,0.01,,,0.24,WUHU216HW,2013-03-07 16:33:00,
2013-03-07 08:58:00,38.3,35.6,30.01,SSW,203,1.1,1.1,90,0.00,,,0.24,WUHU216HW,2013-03-07 16:58:00,
2013-03-07 09:03:00,38.3,35.6,30.01,SSW,203,1.1,1.1,90,0.00,,,0.24,WUHU216HW,2013-03-07 17:03:00,
2013-03-07 09:28:00,39.2,36.3,30.02,WSW,248,0.4,0.4,89,0.00,,,0.24,WUHU216HW,2013-03-07 17:28:00,
2013-03-07 09:33:00,39.2,36.3,30.02,WSW,248,0.4,0.4,89,0.00,,,0.24,WUHU216HW,2013-03-07 17:33:00,
2013-03-07 09:58:00,40.0,36.6,30.02,SSW,203,0.4,0.4,88,0.00,,,0.24,WUHU216HW,2013-03-07 17:58:00,
2013-03-07 10:03:00,40.0,36.6,30.02,SSW,203,0.4,0.4,88,0.00,,,0.24,WUHU216HW,2013-03-07 18:03:00,
2013-03-07 10:28:00,40.7,36.8,30.03,SSW,203,2.2,2.2,86,0.00,,,0.24,WUHU216HW,2013-03-07 18:28:00,
2013-03-07 10:33:00,40.7,36.8,30.03,SSW,203,2.2,2.2,86,0.00,,,0.24,WUHU216HW,2013-03-07 18:33:00,
2013-03-07 10:38:00,40.7,36.8,30.03,SSW,203,2.2,2.2,86,0.00,,,0.24,WUHU216HW,2013-03-07 18:38:00,
2013-03-07 10:58:00,42.1,38.2,30.03,SSW,203,2.9,2.9,86,0.00,,,0.24,WUHU216HW,2013-03-07 18:58:00,
2013-03-07 11:03:00,42.1,38.2,30.03,SSW,203,2.9,2.9,86,0.00,,,0.24,WUHU216HW,2013-03-07 19:03:00,
2013-03-07 11:29:00,43.6,38.1,30.03,WSW,248,1.6,1.6,81,0.00,,,0.24,WUHU216HW,2013-03-07 19:29:00,
2013-03-07 11:34:00,43.6,38.1,30.03,WSW,248,1.6,1.6,81,0.00,,,0.24,WUHU216HW,2013-03-07 19:34:00,
2013-03-07 11:58:00,44.3,37.8,30.03,SE,135,0.2,0.2,78,0.00,,,0.24,WUHU216HW,2013-03-07 19:58:00,
2013-03-07 12:03:00,44.3,37.8,30.03,SE,135,0.2,0.2,78,0.00,,,0.24,WUHU216HW,2013-03-07 20:03:00,
2013-03-07 12:08:00,44.3,37.8,30.03,SE,135,0.2,0.2,78,0.00,,,0.24,WUHU216HW,2013-03-07 20:08:00,
2013-03-07 12:28:00,44.3,37.8,30.03,North,0,0.2,0.2,78,0.00,,,0.24,WUHU216HW,2013-03-07 20:28:00,
2013-03-07 12:34:00,44.3,37.8,30.03,North,0,0.2,0.2,78,0.00,,,0.24,WUHU216HW,2013-03-07 20:34:00,
2013-03-07 12:58:00,43.9,37.8,30.03,NNE,23,2.2,2.2,79,0.00,,,0.24,WUHU216HW,2013-03-07 20:58:00,
2013-03-07 13:03:00,43.9,37.8,30.03,North,0,1.3,2.2,79,0.00,,,0.24,WUHU216HW,2013-03-07 21:03:00,
2013-03-07 13:08:00,43.9,37.8,30.03,North,0,1.3,1.3,79,0.00,,,0.24,WUHU216HW,2013-03-07 21:08:00,
2013-03-07 13:28:00,43.0,38.2,30.02,North,0,0.4,0.4,83,0.01,,,0.24,WUHU216HW,2013-03-07 21:28:00,
2013-03-07 13:33:00,43.0,38.2,30.02,North,0,0.4,0.4,83,0.01,,,0.24,WUHU216HW,2013-03-07 21:33:00,
2013-03-07 13:58:00,42.8,38.6,30.02,NNE,23,1.1,1.1,85,0.01,,,0.25,WUHU216HW,2013-03-07 21:58:00,
2013-03-07 14:03:00,42.8,38.6,30.02,NNE,23,1.8,1.8,85,0.01,,,0.25,WUHU216HW,2013-03-07 22:03:00,
2013-03-07 14:08:00,42.8,38.6,30.02,NNE,23,1.8,1.8,85,0.01,,,0.25,WUHU216HW,2013-03-07 22:08:00,
2013-03-07 14:28:00,42.8,38.6,30.03,NE,45,0.0,0.0,85,0.00,,,0.25,WUHU216HW,2013-03-07 22:28:00,
2013-03-07 14:33:00,42.8,38.6,30.03,NE,45,0.0,0.0,85,0.00,,,0.25,WUHU216HW,2013-03-07 22:33:00,
2013-03-07 14:58:00,42.5,38.3,30.03,West,270,0.7,0.7,85,0.01,,,0.25,WUHU216HW,2013-03-07 22:58:00,
2013-03-07 15:03:00,42.5,38.3,30.03,West,270,0.7,0.7,85,0.01,,,0.25,WUHU216HW,2013-03-07 23:03:00,
2013-03-07 15:28:00,42.1,38.2,30.04,North,0,1.1,1.1,86,0.01,,,0.26,WUHU216HW,2013-03-07 23:28:00,
2013-03-07 15:33:00,42.1,38.2,30.04,North,0,1.1,1.1,86,0.01,,,0.26,WUHU216HW,2013-03-07 23:33:00,
2013-03-07 15:58:00,41.9,38.4,30.03,ENE,68,0.0,0.0,87,0.01,,,0.26,WUHU216HW,2013-03-07 23:58:00,
2013-03-07 16:03:00,41.9,38.4,30.03,ENE,68,0.0,0.0,87,0.01,,,0.26,WUHU216HW,2013-03-08 00:03:00,
2013-03-07 16:28:00,42.5,38.5,30.03,North,0,0.0,0.0,86,0.01,,,0.27,WUHU216HW,2013-03-08 00:28:00,
2013-03-07 16:33:00,42.5,38.5,30.03,North,0,0.0,0.0,86,0.01,,,0.27,WUHU216HW,2013-03-08 00:33:00,
2013-03-07 16:58:00,41.9,37.7,30.03,NW,315,0.2,0.2,85,0.00,,,0.27,WUHU216HW,2013-03-08 00:58:00,
2013-03-07 17:03:00,41.9,37.7,30.03,NW,315,0.2,0.2,85,0.00,,,0.27,WUHU216HW,2013-03-08 01:03:00,
2013-03-07 17:28:00,41.4,37.4,30.03,NNW,338,0.0,0.0,86,0.00,,,0.27,WUHU216HW,2013-03-08 01:28:00,
2013-03-07 17:33:00,41.4,37.4,30.03,NNW,338,0.0,0.0,86,0.00,,,0.27,WUHU216HW,2013-03-08 01:33:00,
2013-03-07 17:58:00,40.3,36.7,30.03,NNW,338,0.0,0.0,87,0.00,,,0.27,WUHU216HW,2013-03-08 01:58:00,
2013-03-07 18:03:00,40.3,36.7,30.03,NNW,338,0.0,0.0,87,0.00,,,0.27,WUHU216HW,2013-03-08 02:03:00,
2013-03-07 18:28:00,38.5,34.9,30.03,North,0,0.0,0.0,87,0.00,,,0.27,WUHU216HW,2013-03-08 02:28:00,
2013-03-07 18:33:00,38.5,34.9,30.03,North,0,0.0,0.0,87,0.00,,,0.27,WUHU216HW,2013-03-08 02:33:00,
2013-03-07 18:58:00,37.3,33.7,30.04,North,0,0.0,0.0,87,0.00,,,0.27,WUHU216HW,2013-03-08 02:58:00,
2013-03-07 19:03:00,37.3,33.7,30.04,North,0,0.0,0.0,87,0.00,,,0.27,WUHU216HW,2013-03-08 03:03:00,
2013-03-07 19:29:00,36.4,32.8,30.05,NNE,23,0.2,0.2,87,0.00,,,0.27,WUHU216HW,2013-03-08 03:29:00,
2013-03-07 19:34:00,36.4,32.8,30.05,NNE,23,0.2,0.2,87,0.00,,,0.27,WUHU216HW,2013-03-08 03:34:00,
2013-03-07 19:58:00,35.5,32.5,30.05,NNE,23,0.0,0.0,89,0.00,,,0.27,WUHU216HW,2013-03-08 03:58:00,
2013-03-07 20:03:00,35.5,32.5,30.05,NNE,23,0.0,0.0,89,0.00,,,0.27,WUHU216HW,2013-03-08 04:03:00,
2013-03-07 20:08:00,35.5,32.5,30.05,NNE,23,0.0,0.0,89,0.00,,,0.27,WUHU216HW,2013-03-08 04:08:00,
2013-03-07 20:28:00,34.4,31.2,30.05,NNE,23,0.4,0.4,88,0.00,,,0.27,WUHU216HW,2013-03-08 04:28:00,
2013-03-07 20:33:00,34.4,31.2,30.05,NNE,23,0.4,0.4,88,0.00,,,0.27,WUHU216HW,2013-03-08 04:33:00,
2013-03-07 20:58:00,33.7,30.7,30.05,NNE,23,0.0,0.0,89,0.00,,,0.27,WUHU216HW,2013-03-08 04:58:00,
2013-03-07 21:00:00,33.7,30.7,30.05,NNE,23,0.0,0.0,89,0.00,,,0.27,WUHU216HW,2013-03-08 05:00:00,
2013-03-07 21:02:00,33.7,30.7,30.05,NNE,23,0.0,0.0,89,0.00,,,0.27,WUHU216HW,2013-03-08 05:02:00,
2013-03-07 21:07:00,33.7,30.7,30.05,NNE,23,0.0,0.0,89,0.00,,,0.27,WUHU216HW,2013-03-08 05:07:00,
2013-03-07 21:28:00,33.5,30.5,30.05,NNE,23,0.0,0.0,89,0.00,,,0.27,WUHU216HW,2013-03-08 05:28:00,
2013-03-07 21:33:00,33.5,30.5,30.05,NNE,23,0.0,0.0,89,0.00,,,0.27,WUHU216HW,2013-03-08 05:33:00,
2013-03-07 21:58:00,33.3,30.3,30.06,NE,45,0.4,0.4,89,0.00,,,0.27,WUHU216HW,2013-03-08 05:58:00,
2013-03-07 22:03:00,33.3,30.3,30.06,NE,45,0.7,0.7,89,0.00,,,0.27,WUHU216HW,2013-03-08 06:03:00,
2013-03-07 22:08:00,33.3,30.3,30.06,NE,45,0.7,0.7,89,0.00,,,0.27,WUHU216HW,2013-03-08 06:08:00,
2013-03-07 22:28:00,33.5,30.8,30.05,SW,225,0.4,0.4,90,0.00,,,0.27,WUHU216HW,2013-03-08 06:28:00,
2013-03-07 22:33:00,33.5,30.8,30.05,SW,225,0.4,0.4,90,0.00,,,0.27,WUHU216HW,2013-03-08 06:33:00,
2013-03-07 22:58:00,33.5,30.8,30.05,SW,225,0.7,0.7,90,0.00,,,0.27,WUHU216HW,2013-03-08 06:58:00,
2013-03-07 23:03:00,33.5,30.8,30.05,SW,225,0.4,0.7,90,0.00,,,0.27,WUHU216HW,2013-03-08 07:03:00,
2013-03-07 23:08:00,33.5,30.8,30.05,SW,225,0.4,0.4,90,0.00,,,0.27,WUHU216HW,2013-03-08 07:08:00,
2013-03-07 23:28:00,33.5,30.8,30.05,SW,225,0.0,0.0,90,0.00,,,0.27,WUHU216HW,2013-03-08 07:28:00,
2013-03-07 23:33:00,33.5,30.8,30.05,SW,225,0.0,0.0,90,0.00,,,0.27,WUHU216HW,2013-03-08 07:33:00,
2013-03-07 23:58:00,33.5,30.8,30.05,SW,225,0.9,0.9,90,0.00,,,0.00,WUHU216HW,2013-03-08 07:58:00,